createdAt,value
2022-08-17T00:02:37.000Z,30.66
2022-08-17T00:12:53.000Z,30.12
2022-08-17T00:17:34.000Z,29.61
2022-08-17T00:22:46.000Z,28.44
2022-08-17T00:27:34.000Z,29.16
2022-08-17T00:33:26.000Z,28.56
2022-08-17T00:37:35.000Z,28.73
2022-08-17T00:42:41.000Z,27.65
2022-08-17T00:47:35.000Z,28.57
2022-08-17T00:52:34.000Z,29.65
2022-08-17T00:57:35.000Z,29.65
2022-08-17T01:02:35.000Z,31
2022-08-17T01:07:35.000Z,29.19
2022-08-17T01:12:35.000Z,26.35
2022-08-17T01:17:34.000Z,29.42
2022-08-17T01:22:34.000Z,28.34
2022-08-17T01:27:35.000Z,28.1
2022-08-17T01:32:34.000Z,28.1
2022-08-17T01:37:35.000Z,28.42
2022-08-17T01:42:35.000Z,28.05
2022-08-17T01:47:35.000Z,28.01
2022-08-17T01:57:35.000Z,29.58
2022-08-17T02:02:41.000Z,26.43
2022-08-17T02:07:37.000Z,28
2022-08-17T02:22:34.000Z,29.26
2022-08-17T02:27:34.000Z,27.2
2022-08-17T02:32:38.000Z,27.84
2022-08-17T02:37:35.000Z,27.97
2022-08-17T02:42:35.000Z,27.14
2022-08-17T02:47:35.000Z,26.34
2022-08-17T02:52:53.000Z,27.58
2022-08-17T02:57:35.000Z,26.32
2022-08-17T03:02:34.000Z,26.84
2022-08-17T03:07:35.000Z,26.45
2022-08-17T03:12:34.000Z,27.11
2022-08-17T03:17:34.000Z,30.65
2022-08-17T03:22:57.000Z,28.97
2022-08-17T03:27:34.000Z,28.97
2022-08-17T03:32:35.000Z,28.55
2022-08-17T03:37:35.000Z,30
2022-08-17T03:42:42.000Z,30.01
2022-08-17T03:47:35.000Z,27.73
2022-08-17T03:52:35.000Z,24.51
2022-08-17T03:57:35.000Z,26.28
2022-08-17T04:02:35.000Z,25.26
2022-08-17T04:07:34.000Z,26.3
2022-08-17T04:12:35.000Z,23.7
2022-08-17T04:17:34.000Z,22.93
2022-08-17T04:22:44.000Z,25.81
2022-08-17T04:27:35.000Z,22.11
2022-08-17T04:33:16.000Z,24.26
2022-08-17T04:37:34.000Z,24.2
2022-08-17T04:42:34.000Z,24.2
2022-08-17T04:47:34.000Z,28.25
2022-08-17T04:52:53.000Z,24.4
2022-08-17T04:57:35.000Z,24.08
2022-08-17T05:07:40.000Z,21.54
2022-08-17T05:12:34.000Z,20.15
2022-08-17T05:22:34.000Z,21.98
2022-08-17T05:27:39.000Z,20.47
2022-08-17T05:32:50.000Z,21.38
2022-08-17T05:37:34.000Z,21.76
2022-08-17T05:42:34.000Z,19.95
2022-08-17T05:47:35.000Z,16.31
2022-08-17T05:52:35.000Z,16.65
2022-08-17T05:57:35.000Z,16.65
2022-08-17T06:02:34.000Z,15.64
2022-08-17T06:07:34.000Z,15.77
2022-08-17T06:12:35.000Z,17.29
2022-08-17T06:17:35.000Z,20.58
2022-08-17T06:22:35.000Z,15.03
2022-08-17T06:27:35.000Z,15.87
2022-08-17T06:32:34.000Z,17.27
2022-08-17T06:37:34.000Z,12.53
2022-08-17T06:43:16.000Z,13.71
2022-08-17T06:47:39.000Z,13.62
2022-08-17T06:52:56.000Z,13.98
2022-08-17T07:03:01.000Z,11.34
2022-08-17T07:07:35.000Z,12.23
2022-08-17T07:12:35.000Z,11.47
2022-08-17T07:17:57.000Z,11.31
2022-08-17T07:22:35.000Z,11.23
2022-08-17T07:27:35.000Z,10.27
2022-08-17T07:32:35.000Z,10.56
2022-08-17T07:37:35.000Z,12.09
2022-08-17T07:42:34.000Z,12.79
2022-08-17T07:47:35.000Z,10.68
2022-08-17T07:53:02.000Z,9.93
2022-08-17T07:57:40.000Z,9.93
2022-08-17T08:02:43.000Z,10.89
2022-08-17T08:07:35.000Z,11.43
2022-08-17T08:12:43.000Z,9.78
2022-08-17T08:17:34.000Z,10.33
2022-08-17T08:22:34.000Z,9.85
2022-08-17T08:27:34.000Z,11.46
2022-08-17T08:32:34.000Z,9.6
2022-08-17T08:37:46.000Z,11.31
2022-08-17T08:42:34.000Z,9.91
2022-08-17T08:47:35.000Z,9.35
2022-08-17T08:52:35.000Z,9.22
2022-08-17T08:57:43.000Z,9.02
2022-08-17T09:02:34.000Z,9.02
2022-08-17T09:12:35.000Z,8.9
2022-08-17T09:17:34.000Z,8.9
2022-08-17T09:22:35.000Z,10.1
2022-08-17T09:27:35.000Z,9.21
2022-08-17T09:32:35.000Z,9.94
2022-08-17T09:37:35.000Z,10.67
2022-08-17T09:42:35.000Z,10.5
2022-08-17T09:47:35.000Z,10.52
2022-08-17T09:52:34.000Z,11.93
2022-08-17T09:57:41.000Z,11.74
2022-08-17T10:02:34.000Z,12.84
2022-08-17T10:07:34.000Z,12.51
2022-08-17T10:12:40.000Z,11.93
2022-08-17T10:17:35.000Z,12.29
2022-08-17T10:22:45.000Z,12.6
2022-08-17T10:27:35.000Z,12.6
2022-08-17T10:32:35.000Z,12.81
2022-08-17T10:37:35.000Z,12.41
2022-08-17T10:42:43.000Z,12.51
2022-08-17T10:47:35.000Z,13.51
2022-08-17T10:52:35.000Z,12.34
2022-08-17T10:57:35.000Z,12.65
2022-08-17T11:02:35.000Z,13.22
2022-08-17T11:07:34.000Z,13.12
2022-08-17T11:12:35.000Z,13.35
2022-08-17T11:17:34.000Z,13.63
2022-08-17T11:22:38.000Z,13.77
2022-08-17T11:27:35.000Z,15.39
2022-08-17T11:32:35.000Z,13.57
2022-08-17T11:37:35.000Z,13.55
2022-08-17T11:42:35.000Z,13.55
2022-08-17T11:47:35.000Z,13.71
2022-08-17T12:02:39.000Z,11.55
2022-08-17T12:07:35.000Z,11.35
2022-08-17T12:12:35.000Z,11.08
2022-08-17T12:17:52.000Z,11.27
2022-08-17T12:22:35.000Z,10.92
2022-08-17T12:28:15.000Z,14.84
2022-08-17T12:32:34.000Z,14.66
2022-08-17T12:37:34.000Z,14.66
2022-08-17T12:42:35.000Z,14.53
2022-08-17T12:47:39.000Z,14.42
2022-08-17T12:52:35.000Z,18.94
2022-08-17T12:57:35.000Z,16.74
2022-08-17T13:02:34.000Z,15.67
2022-08-17T13:07:34.000Z,15.68
2022-08-17T13:12:35.000Z,15.01
2022-08-17T13:17:36.000Z,15.38
2022-08-17T13:22:36.000Z,16.05
2022-08-17T13:27:35.000Z,16.91
2022-08-17T13:32:38.000Z,15.59
2022-08-17T13:37:36.000Z,17.04
2022-08-17T13:42:35.000Z,13.85
2022-08-17T13:47:35.000Z,14.69
2022-08-17T13:52:35.000Z,14.69
2022-08-17T13:57:34.000Z,13.63
2022-08-17T14:02:38.000Z,14.93
2022-08-17T14:07:35.000Z,15.21
2022-08-17T14:12:35.000Z,14.43
2022-08-17T14:17:35.000Z,15.85
2022-08-17T14:22:35.000Z,14.88
2022-08-17T14:27:34.000Z,15.96
2022-08-17T14:32:34.000Z,16.02
2022-08-17T14:37:35.000Z,14.83
2022-08-17T14:42:35.000Z,15.7
2022-08-17T14:47:34.000Z,19.02
2022-08-17T14:52:34.000Z,18.77
2022-08-17T14:57:44.000Z,18.33
2022-08-17T15:02:40.000Z,17.21
2022-08-17T15:07:41.000Z,17.21
2022-08-17T15:12:42.000Z,16.3
2022-08-17T15:17:54.000Z,18.78
2022-08-17T15:22:34.000Z,16.86
2022-08-17T15:27:42.000Z,19.12
2022-08-17T15:32:34.000Z,20.43
2022-08-17T15:47:34.000Z,18.53
2022-08-17T15:52:34.000Z,21.33
2022-08-17T15:57:35.000Z,20.96
2022-08-17T16:04:02.000Z,21.63
2022-08-17T16:12:35.000Z,26.56
2022-08-17T16:17:50.000Z,32.81
2022-08-17T16:27:34.000Z,32.57
2022-08-17T16:32:43.000Z,30.06
2022-08-17T16:37:35.000Z,31.45
2022-08-17T16:42:34.000Z,33.15
2022-08-17T16:47:34.000Z,34.24
2022-08-17T16:57:34.000Z,31.55
2022-08-17T17:02:35.000Z,30.89
2022-08-17T17:07:35.000Z,30.56
2022-08-17T17:13:11.000Z,32.17
2022-08-17T17:17:34.000Z,30.23
2022-08-17T17:22:34.000Z,29.48
2022-08-17T17:27:34.000Z,29.24
2022-08-17T17:32:34.000Z,30.1
2022-08-17T17:37:35.000Z,30.68
2022-08-17T17:42:35.000Z,31.43
2022-08-17T17:47:34.000Z,31.43
2022-08-17T17:52:35.000Z,33.83
2022-08-17T17:57:35.000Z,32.29
2022-08-17T18:02:35.000Z,35.77
2022-08-17T18:07:37.000Z,33.85
2022-08-17T18:12:35.000Z,33.22
2022-08-17T18:17:34.000Z,33.13
2022-08-17T18:22:35.000Z,32.92
2022-08-17T18:27:35.000Z,33.24
2022-08-17T18:32:34.000Z,31.62
2022-08-17T18:37:34.000Z,32.18
2022-08-17T18:42:35.000Z,32.94
2022-08-17T18:47:35.000Z,33.29
2022-08-17T18:52:35.000Z,33.51
2022-08-17T18:57:34.000Z,33.36
2022-08-17T19:02:55.000Z,32.54
2022-08-17T19:07:35.000Z,32.54
2022-08-17T19:12:37.000Z,30.87
2022-08-17T19:17:35.000Z,30.47
2022-08-17T19:22:39.000Z,29.7
2022-08-17T19:27:44.000Z,29.82
2022-08-17T19:32:35.000Z,30.39
2022-08-17T19:37:35.000Z,29.59
2022-08-17T19:42:35.000Z,29.22
2022-08-17T19:48:03.000Z,30.33
2022-08-17T19:52:34.000Z,29.42
2022-08-17T19:57:35.000Z,29.79
2022-08-17T20:07:34.000Z,30.41
2022-08-17T20:12:35.000Z,32.01
2022-08-17T20:17:38.000Z,30.55
2022-08-17T20:22:35.000Z,30.58
2022-08-17T20:27:41.000Z,31.57
2022-08-17T20:32:35.000Z,31.57
2022-08-17T20:37:34.000Z,31.89
2022-08-17T20:42:34.000Z,30.31
2022-08-17T20:47:37.000Z,27.38
2022-08-17T20:52:35.000Z,26.7
2022-08-17T20:57:35.000Z,26.93
2022-08-17T21:02:35.000Z,27.31
2022-08-17T21:07:35.000Z,26.14
2022-08-17T21:12:34.000Z,25.92
2022-08-17T21:17:35.000Z,27.69
2022-08-17T21:22:34.000Z,28.11
2022-08-17T21:27:35.000Z,30.06
2022-08-17T21:32:35.000Z,29.83
2022-08-17T21:37:34.000Z,28.03
2022-08-17T21:42:35.000Z,29.4
2022-08-17T21:47:34.000Z,29.4
2022-08-17T21:57:35.000Z,26
2022-08-17T22:02:35.000Z,26.08
2022-08-17T22:07:35.000Z,26.15
2022-08-17T22:12:35.000Z,26.04
2022-08-17T22:17:35.000Z,27.78
2022-08-17T22:22:35.000Z,27.44
2022-08-17T22:27:36.000Z,26.98
2022-08-17T22:32:39.000Z,25.68
2022-08-17T22:37:37.000Z,24.5
2022-08-17T22:42:34.000Z,24.51
2022-08-17T22:47:35.000Z,26.23
2022-08-17T22:52:42.000Z,25.61
2022-08-17T22:57:34.000Z,25.61
2022-08-17T23:02:35.000Z,23.81
2022-08-17T23:07:34.000Z,23.72
2022-08-17T23:12:35.000Z,23.79
2022-08-17T23:17:35.000Z,25.71
2022-08-17T23:22:35.000Z,24.68
2022-08-17T23:27:35.000Z,24.11
2022-08-17T23:32:35.000Z,22.61
2022-08-17T23:37:35.000Z,23.32
2022-08-17T23:42:34.000Z,22.63
2022-08-17T23:47:35.000Z,21.74
2022-08-17T23:52:34.000Z,20.44
2022-08-17T23:57:45.000Z,20.59
